sensor_id;sensor_type;location;lat;lon;timestamp;P1;durP1;ratioP1;P2;durP2;ratioP2
66085;SDS011;52868;49.758;9.586;2022-12-19T00:01:03;30.67;;;8.38;;
66085;SDS011;52868;49.758;9.586;2022-12-19T00:03:40;24.42;;;7.88;;
66085;SDS011;52868;49.758;9.586;2022-12-19T00:06:09;25.98;;;8.40;;
66085;SDS011;52868;49.758;9.586;2022-12-19T00:08:35;23.70;;;8.13;;
66085;SDS011;52868;49.758;9.586;2022-12-19T00:11:01;24.85;;;7.78;;
66085;SDS011;52868;49.758;9.586;2022-12-19T00:13:28;31.40;;;9.30;;
66085;SDS011;52868;49.758;9.586;2022-12-19T00:15:59;24.35;;;8.57;;
66085;SDS011;52868;49.758;9.586;2022-12-19T00:18:26;25.52;;;7.88;;
66085;SDS011;52868;49.758;9.586;2022-12-19T00:20:56;24.48;;;8.23;;
66085;SDS011;52868;49.758;9.586;2022-12-19T00:23:23;34.67;;;9.75;;
66085;SDS011;52868;49.758;9.586;2022-12-19T00:25:49;29.23;;;9.00;;
66085;SDS011;52868;49.758;9.586;2022-12-19T00:28:15;27.27;;;8.38;;
66085;SDS011;52868;49.758;9.586;2022-12-19T00:30:41;26.52;;;9.13;;
66085;SDS011;52868;49.758;9.586;2022-12-19T00:33:06;21.60;;;7.50;;
66085;SDS011;52868;49.758;9.586;2022-12-19T00:35:32;26.10;;;8.20;;
66085;SDS011;52868;49.758;9.586;2022-12-19T00:37:57;21.85;;;7.28;;
66085;SDS011;52868;49.758;9.586;2022-12-19T00:40:23;24.02;;;8.48;;
66085;SDS011;52868;49.758;9.586;2022-12-19T00:42:51;23.80;;;7.28;;
66085;SDS011;52868;49.758;9.586;2022-12-19T00:45:17;17.58;;;7.15;;
66085;SDS011;52868;49.758;9.586;2022-12-19T00:47:43;23.30;;;7.88;;
66085;SDS011;52868;49.758;9.586;2022-12-19T00:50:08;31.48;;;9.65;;
66085;SDS011;52868;49.758;9.586;2022-12-19T00:52:34;28.48;;;9.10;;
66085;SDS011;52868;49.758;9.586;2022-12-19T00:54:59;18.25;;;6.13;;
66085;SDS011;52868;49.758;9.586;2022-12-19T00:57:25;22.10;;;7.15;;
66085;SDS011;52868;49.758;9.586;2022-12-19T00:59:51;24.98;;;8.95;;
66085;SDS011;52868;49.758;9.586;2022-12-19T01:02:16;20.77;;;6.57;;
66085;SDS011;52868;49.758;9.586;2022-12-19T01:04:42;22.90;;;6.88;;
66085;SDS011;52868;49.758;9.586;2022-12-19T01:07:07;19.85;;;6.10;;
66085;SDS011;52868;49.758;9.586;2022-12-19T01:09:34;28.17;;;7.43;;
66085;SDS011;52868;49.758;9.586;2022-12-19T01:12:01;19.60;;;7.18;;
66085;SDS011;52868;49.758;9.586;2022-12-19T01:14:46;25.45;;;6.93;;
66085;SDS011;52868;49.758;9.586;2022-12-19T01:17:12;24.38;;;8.18;;
66085;SDS011;52868;49.758;9.586;2022-12-19T01:19:37;21.67;;;8.07;;
66085;SDS011;52868;49.758;9.586;2022-12-19T01:22:03;25.33;;;6.68;;
66085;SDS011;52868;49.758;9.586;2022-12-19T01:24:29;24.55;;;8.23;;
66085;SDS011;52868;49.758;9.586;2022-12-19T01:26:54;20.75;;;6.97;;
66085;SDS011;52868;49.758;9.586;2022-12-19T01:29:20;21.80;;;6.47;;
66085;SDS011;52868;49.758;9.586;2022-12-19T01:31:45;21.67;;;7.35;;
66085;SDS011;52868;49.758;9.586;2022-12-19T01:34:11;20.33;;;6.93;;
66085;SDS011;52868;49.758;9.586;2022-12-19T01:36:37;22.98;;;7.32;;
66085;SDS011;52868;49.758;9.586;2022-12-19T01:39:03;22.98;;;7.88;;
66085;SDS011;52868;49.758;9.586;2022-12-19T01:41:29;31.95;;;8.68;;
66085;SDS011;52868;49.758;9.586;2022-12-19T01:43:58;27.30;;;9.02;;
66085;SDS011;52868;49.758;9.586;2022-12-19T01:46:26;25.60;;;8.02;;
66085;SDS011;52868;49.758;9.586;2022-12-19T01:48:59;26.00;;;8.27;;
66085;SDS011;52868;49.758;9.586;2022-12-19T01:51:26;20.17;;;6.15;;
66085;SDS011;52868;49.758;9.586;2022-12-19T01:54:21;26.25;;;8.18;;
66085;SDS011;52868;49.758;9.586;2022-12-19T01:56:54;20.02;;;7.65;;
66085;SDS011;52868;49.758;9.586;2022-12-19T01:59:22;26.65;;;7.90;;
66085;SDS011;52868;49.758;9.586;2022-12-19T02:01:57;23.83;;;7.03;;
66085;SDS011;52868;49.758;9.586;2022-12-19T02:04:28;25.92;;;7.00;;
66085;SDS011;52868;49.758;9.586;2022-12-19T02:06:54;19.92;;;7.18;;
66085;SDS011;52868;49.758;9.586;2022-12-19T02:09:22;19.63;;;7.68;;
66085;SDS011;52868;49.758;9.586;2022-12-19T02:11:48;20.42;;;8.07;;
66085;SDS011;52868;49.758;9.586;2022-12-19T02:14:13;23.15;;;8.38;;
66085;SDS011;52868;49.758;9.586;2022-12-19T02:30:52;25.08;;;6.70;;
66085;SDS011;52868;49.758;9.586;2022-12-19T02:33:49;20.73;;;6.80;;
66085;SDS011;52868;49.758;9.586;2022-12-19T02:38:57;20.77;;;6.88;;
66085;SDS011;52868;49.758;9.586;2022-12-19T02:41:29;23.95;;;6.95;;
66085;SDS011;52868;49.758;9.586;2022-12-19T02:44:29;24.23;;;7.60;;
66085;SDS011;52868;49.758;9.586;2022-12-19T02:46:58;28.75;;;9.10;;
66085;SDS011;52868;49.758;9.586;2022-12-19T02:49:27;24.80;;;8.15;;
66085;SDS011;52868;49.758;9.586;2022-12-19T02:51:53;21.23;;;7.45;;
66085;SDS011;52868;49.758;9.586;2022-12-19T02:54:19;22.42;;;7.53;;
66085;SDS011;52868;49.758;9.586;2022-12-19T02:56:53;22.70;;;7.22;;
66085;SDS011;52868;49.758;9.586;2022-12-19T03:01:59;27.95;;;8.35;;
66085;SDS011;52868;49.758;9.586;2022-12-19T03:04:56;21.48;;;6.57;;
66085;SDS011;52868;49.758;9.586;2022-12-19T03:07:36;24.58;;;8.63;;
66085;SDS011;52868;49.758;9.586;2022-12-19T03:12:44;20.00;;;6.85;;
66085;SDS011;52868;49.758;9.586;2022-12-19T03:15:15;22.67;;;6.93;;
66085;SDS011;52868;49.758;9.586;2022-12-19T03:17:42;20.98;;;6.18;;
66085;SDS011;52868;49.758;9.586;2022-12-19T03:20:09;22.98;;;6.82;;
66085;SDS011;52868;49.758;9.586;2022-12-19T03:22:40;24.42;;;7.28;;
66085;SDS011;52868;49.758;9.586;2022-12-19T03:25:06;24.13;;;6.75;;
66085;SDS011;52868;49.758;9.586;2022-12-19T03:27:33;23.15;;;7.80;;
66085;SDS011;52868;49.758;9.586;2022-12-19T03:30:03;26.55;;;8.27;;
66085;SDS011;52868;49.758;9.586;2022-12-19T03:32:32;24.83;;;6.47;;
66085;SDS011;52868;49.758;9.586;2022-12-19T03:35:04;26.35;;;7.75;;
66085;SDS011;52868;49.758;9.586;2022-12-19T03:37:35;23.75;;;7.75;;
66085;SDS011;52868;49.758;9.586;2022-12-19T03:40:04;25.45;;;7.07;;
66085;SDS011;52868;49.758;9.586;2022-12-19T03:42:36;21.73;;;7.68;;
66085;SDS011;52868;49.758;9.586;2022-12-19T03:45:27;26.15;;;7.30;;
66085;SDS011;52868;49.758;9.586;2022-12-19T03:48:02;22.35;;;6.45;;
66085;SDS011;52868;49.758;9.586;2022-12-19T03:50:41;20.58;;;7.00;;
66085;SDS011;52868;49.758;9.586;2022-12-19T03:56:02;22.10;;;8.15;;
66085;SDS011;52868;49.758;9.586;2022-12-19T03:58:35;26.35;;;7.88;;
66085;SDS011;52868;49.758;9.586;2022-12-19T04:01:04;22.98;;;7.75;;
66085;SDS011;52868;49.758;9.586;2022-12-19T04:03:30;19.23;;;7.00;;
66085;SDS011;52868;49.758;9.586;2022-12-19T04:05:56;22.85;;;7.25;;
66085;SDS011;52868;49.758;9.586;2022-12-19T04:08:27;26.17;;;8.75;;
66085;SDS011;52868;49.758;9.586;2022-12-19T04:11:00;23.73;;;7.15;;
66085;SDS011;52868;49.758;9.586;2022-12-19T04:13:37;22.50;;;7.50;;
66085;SDS011;52868;49.758;9.586;2022-12-19T04:18:37;23.05;;;7.07;;
66085;SDS011;52868;49.758;9.586;2022-12-19T04:21:13;21.67;;;7.40;;
66085;SDS011;52868;49.758;9.586;2022-12-19T04:23:45;26.70;;;8.52;;
66085;SDS011;52868;49.758;9.586;2022-12-19T04:26:17;19.85;;;7.63;;
66085;SDS011;52868;49.758;9.586;2022-12-19T04:28:52;19.00;;;7.47;;
66085;SDS011;52868;49.758;9.586;2022-12-19T04:31:20;18.83;;;6.57;;
66085;SDS011;52868;49.758;9.586;2022-12-19T04:33:47;23.67;;;7.43;;
66085;SDS011;52868;49.758;9.586;2022-12-19T04:36:13;18.67;;;6.25;;
66085;SDS011;52868;49.758;9.586;2022-12-19T04:38:39;22.45;;;7.78;;
66085;SDS011;52868;49.758;9.586;2022-12-19T04:41:04;20.63;;;6.80;;
66085;SDS011;52868;49.758;9.586;2022-12-19T04:43:30;24.15;;;6.53;;
66085;SDS011;52868;49.758;9.586;2022-12-19T04:45:56;20.20;;;7.35;;
66085;SDS011;52868;49.758;9.586;2022-12-19T04:48:21;26.88;;;8.07;;
66085;SDS011;52868;49.758;9.586;2022-12-19T04:50:47;25.52;;;7.55;;
66085;SDS011;52868;49.758;9.586;2022-12-19T04:53:12;18.33;;;7.05;;
66085;SDS011;52868;49.758;9.586;2022-12-19T04:55:38;20.42;;;7.13;;
66085;SDS011;52868;49.758;9.586;2022-12-19T04:58:05;27.42;;;9.15;;
66085;SDS011;52868;49.758;9.586;2022-12-19T05:00:31;20.25;;;6.32;;
66085;SDS011;52868;49.758;9.586;2022-12-19T05:02:57;18.15;;;7.22;;
66085;SDS011;52868;49.758;9.586;2022-12-19T05:05:23;19.25;;;6.43;;
66085;SDS011;52868;49.758;9.586;2022-12-19T05:07:49;29.10;;;8.43;;
66085;SDS011;52868;49.758;9.586;2022-12-19T05:10:15;25.75;;;7.68;;
66085;SDS011;52868;49.758;9.586;2022-12-19T05:12:41;20.25;;;7.25;;
66085;SDS011;52868;49.758;9.586;2022-12-19T05:15:06;26.05;;;8.15;;
66085;SDS011;52868;49.758;9.586;2022-12-19T05:17:32;16.38;;;6.15;;
66085;SDS011;52868;49.758;9.586;2022-12-19T05:19:58;23.05;;;7.78;;
66085;SDS011;52868;49.758;9.586;2022-12-19T05:22:24;19.88;;;7.97;;
66085;SDS011;52868;49.758;9.586;2022-12-19T05:24:49;21.98;;;8.68;;
66085;SDS011;52868;49.758;9.586;2022-12-19T05:27:15;26.83;;;8.07;;
66085;SDS011;52868;49.758;9.586;2022-12-19T05:29:40;30.00;;;8.20;;
66085;SDS011;52868;49.758;9.586;2022-12-19T05:32:06;26.02;;;8.27;;
66085;SDS011;52868;49.758;9.586;2022-12-19T05:34:32;23.05;;;6.80;;
66085;SDS011;52868;49.758;9.586;2022-12-19T05:36:57;20.90;;;7.65;;
66085;SDS011;52868;49.758;9.586;2022-12-19T05:39:23;24.63;;;8.63;;
66085;SDS011;52868;49.758;9.586;2022-12-19T05:41:49;34.55;;;9.52;;
66085;SDS011;52868;49.758;9.586;2022-12-19T05:44:15;35.05;;;10.07;;
66085;SDS011;52868;49.758;9.586;2022-12-19T05:46:41;35.30;;;10.18;;
66085;SDS011;52868;49.758;9.586;2022-12-19T05:49:06;39.92;;;10.88;;
66085;SDS011;52868;49.758;9.586;2022-12-19T05:51:32;39.72;;;10.00;;
66085;SDS011;52868;49.758;9.586;2022-12-19T05:54:01;37.17;;;9.75;;
66085;SDS011;52868;49.758;9.586;2022-12-19T05:56:27;21.55;;;7.25;;
66085;SDS011;52868;49.758;9.586;2022-12-19T05:58:52;31.17;;;9.05;;
66085;SDS011;52868;49.758;9.586;2022-12-19T06:01:22;27.27;;;8.68;;
66085;SDS011;52868;49.758;9.586;2022-12-19T06:03:50;34.88;;;9.55;;
66085;SDS011;52868;49.758;9.586;2022-12-19T06:06:19;26.98;;;8.10;;
66085;SDS011;52868;49.758;9.586;2022-12-19T06:08:46;20.80;;;7.30;;
66085;SDS011;52868;49.758;9.586;2022-12-19T06:11:12;32.25;;;10.50;;
66085;SDS011;52868;49.758;9.586;2022-12-19T06:13:38;26.52;;;8.57;;
66085;SDS011;52868;49.758;9.586;2022-12-19T06:16:15;30.65;;;8.43;;
66085;SDS011;52868;49.758;9.586;2022-12-19T06:18:42;24.95;;;8.43;;
66085;SDS011;52868;49.758;9.586;2022-12-19T06:21:10;32.20;;;9.70;;
66085;SDS011;52868;49.758;9.586;2022-12-19T06:23:41;31.63;;;9.70;;
66085;SDS011;52868;49.758;9.586;2022-12-19T06:26:08;24.85;;;8.25;;
66085;SDS011;52868;49.758;9.586;2022-12-19T06:28:36;33.07;;;9.23;;
66085;SDS011;52868;49.758;9.586;2022-12-19T06:31:02;22.88;;;7.60;;
66085;SDS011;52868;49.758;9.586;2022-12-19T06:33:29;24.02;;;8.30;;
66085;SDS011;52868;49.758;9.586;2022-12-19T06:36:06;30.50;;;10.15;;
66085;SDS011;52868;49.758;9.586;2022-12-19T06:38:35;24.55;;;7.97;;
66085;SDS011;52868;49.758;9.586;2022-12-19T06:41:02;21.80;;;7.03;;
66085;SDS011;52868;49.758;9.586;2022-12-19T06:43:47;54.83;;;15.77;;
66085;SDS011;52868;49.758;9.586;2022-12-19T06:46:13;38.47;;;11.07;;
66085;SDS011;52868;49.758;9.586;2022-12-19T06:48:38;31.88;;;10.63;;
66085;SDS011;52868;49.758;9.586;2022-12-19T06:51:04;31.80;;;10.43;;
66085;SDS011;52868;49.758;9.586;2022-12-19T06:53:30;28.25;;;8.70;;
66085;SDS011;52868;49.758;9.586;2022-12-19T06:55:56;34.90;;;9.88;;
66085;SDS011;52868;49.758;9.586;2022-12-19T06:58:23;30.35;;;10.13;;
66085;SDS011;52868;49.758;9.586;2022-12-19T07:00:49;28.60;;;9.40;;
66085;SDS011;52868;49.758;9.586;2022-12-19T07:03:18;33.22;;;8.55;;
66085;SDS011;52868;49.758;9.586;2022-12-19T07:05:46;31.40;;;10.00;;
66085;SDS011;52868;49.758;9.586;2022-12-19T07:08:12;28.52;;;9.07;;
66085;SDS011;52868;49.758;9.586;2022-12-19T07:10:38;34.85;;;8.77;;
66085;SDS011;52868;49.758;9.586;2022-12-19T07:13:03;25.17;;;7.95;;
66085;SDS011;52868;49.758;9.586;2022-12-19T07:15:29;32.72;;;10.95;;
66085;SDS011;52868;49.758;9.586;2022-12-19T07:17:57;30.80;;;9.75;;
66085;SDS011;52868;49.758;9.586;2022-12-19T07:20:24;30.10;;;11.30;;
66085;SDS011;52868;49.758;9.586;2022-12-19T07:22:51;35.83;;;10.45;;
66085;SDS011;52868;49.758;9.586;2022-12-19T07:25:17;28.63;;;8.95;;
66085;SDS011;52868;49.758;9.586;2022-12-19T07:27:43;27.42;;;9.60;;
66085;SDS011;52868;49.758;9.586;2022-12-19T07:30:09;27.13;;;9.57;;
66085;SDS011;52868;49.758;9.586;2022-12-19T07:32:35;58.22;;;17.45;;
66085;SDS011;52868;49.758;9.586;2022-12-19T07:35:03;46.25;;;15.18;;
66085;SDS011;52868;49.758;9.586;2022-12-19T07:37:29;39.03;;;13.60;;
66085;SDS011;52868;49.758;9.586;2022-12-19T07:39:55;42.28;;;10.57;;
66085;SDS011;52868;49.758;9.586;2022-12-19T07:42:20;38.78;;;11.20;;
66085;SDS011;52868;49.758;9.586;2022-12-19T07:44:46;31.90;;;11.20;;
66085;SDS011;52868;49.758;9.586;2022-12-19T07:47:12;37.35;;;10.27;;
66085;SDS011;52868;49.758;9.586;2022-12-19T07:49:40;25.13;;;9.10;;
66085;SDS011;52868;49.758;9.586;2022-12-19T07:52:06;29.00;;;9.27;;
66085;SDS011;52868;49.758;9.586;2022-12-19T07:54:32;26.83;;;8.20;;
66085;SDS011;52868;49.758;9.586;2022-12-19T07:56:59;24.50;;;8.38;;
66085;SDS011;52868;49.758;9.586;2022-12-19T07:59:25;30.75;;;9.55;;
66085;SDS011;52868;49.758;9.586;2022-12-19T08:01:51;32.47;;;9.75;;
66085;SDS011;52868;49.758;9.586;2022-12-19T08:04:16;28.30;;;10.05;;
66085;SDS011;52868;49.758;9.586;2022-12-19T08:06:42;25.75;;;9.02;;
66085;SDS011;52868;49.758;9.586;2022-12-19T08:09:07;34.08;;;10.30;;
66085;SDS011;52868;49.758;9.586;2022-12-19T08:11:33;28.05;;;9.15;;
66085;SDS011;52868;49.758;9.586;2022-12-19T08:13:59;31.20;;;9.57;;
66085;SDS011;52868;49.758;9.586;2022-12-19T08:16:25;25.17;;;9.63;;
66085;SDS011;52868;49.758;9.586;2022-12-19T08:18:52;30.15;;;10.43;;
66085;SDS011;52868;49.758;9.586;2022-12-19T08:21:17;28.23;;;8.57;;
66085;SDS011;52868;49.758;9.586;2022-12-19T08:23:43;25.73;;;9.25;;
66085;SDS011;52868;49.758;9.586;2022-12-19T08:26:11;23.15;;;7.80;;
66085;SDS011;52868;49.758;9.586;2022-12-19T08:28:39;20.00;;;7.60;;
66085;SDS011;52868;49.758;9.586;2022-12-19T08:31:06;24.42;;;7.53;;
66085;SDS011;52868;49.758;9.586;2022-12-19T08:33:35;20.92;;;7.78;;
66085;SDS011;52868;49.758;9.586;2022-12-19T08:36:03;25.52;;;7.70;;
66085;SDS011;52868;49.758;9.586;2022-12-19T08:38:29;25.52;;;8.10;;
66085;SDS011;52868;49.758;9.586;2022-12-19T08:40:55;24.48;;;9.02;;
66085;SDS011;52868;49.758;9.586;2022-12-19T08:43:21;31.88;;;9.32;;
66085;SDS011;52868;49.758;9.586;2022-12-19T08:45:47;27.73;;;8.55;;
66085;SDS011;52868;49.758;9.586;2022-12-19T08:48:13;24.40;;;8.80;;
66085;SDS011;52868;49.758;9.586;2022-12-19T08:50:47;36.25;;;9.23;;
66085;SDS011;52868;49.758;9.586;2022-12-19T08:53:14;26.25;;;9.07;;
66085;SDS011;52868;49.758;9.586;2022-12-19T08:55:39;41.50;;;9.45;;
66085;SDS011;52868;49.758;9.586;2022-12-19T08:58:05;84.80;;;25.92;;
66085;SDS011;52868;49.758;9.586;2022-12-19T09:00:31;104.10;;;28.27;;
66085;SDS011;52868;49.758;9.586;2022-12-19T09:02:56;69.25;;;17.35;;
66085;SDS011;52868;49.758;9.586;2022-12-19T09:05:22;48.22;;;15.38;;
66085;SDS011;52868;49.758;9.586;2022-12-19T09:07:47;46.38;;;12.75;;
66085;SDS011;52868;49.758;9.586;2022-12-19T09:10:13;36.15;;;12.15;;
66085;SDS011;52868;49.758;9.586;2022-12-19T09:12:39;30.38;;;10.07;;
66085;SDS011;52868;49.758;9.586;2022-12-19T09:15:04;37.20;;;10.57;;
66085;SDS011;52868;49.758;9.586;2022-12-19T09:17:31;39.80;;;11.20;;
66085;SDS011;52868;49.758;9.586;2022-12-19T09:19:57;27.85;;;9.00;;
66085;SDS011;52868;49.758;9.586;2022-12-19T09:22:22;29.17;;;10.32;;
66085;SDS011;52868;49.758;9.586;2022-12-19T09:24:48;33.67;;;9.15;;
66085;SDS011;52868;49.758;9.586;2022-12-19T09:27:14;26.70;;;8.75;;
66085;SDS011;52868;49.758;9.586;2022-12-19T09:29:39;33.42;;;9.60;;
66085;SDS011;52868;49.758;9.586;2022-12-19T09:32:05;27.10;;;9.95;;
66085;SDS011;52868;49.758;9.586;2022-12-19T09:34:33;29.25;;;8.98;;
66085;SDS011;52868;49.758;9.586;2022-12-19T09:37:00;28.38;;;9.38;;
66085;SDS011;52868;49.758;9.586;2022-12-19T09:39:26;25.17;;;8.88;;
66085;SDS011;52868;49.758;9.586;2022-12-19T09:47:18;33.67;;;9.83;;
66085;SDS011;52868;49.758;9.586;2022-12-19T09:49:48;26.48;;;8.07;;
66085;SDS011;52868;49.758;9.586;2022-12-19T09:55:23;27.85;;;8.55;;
66085;SDS011;52868;49.758;9.586;2022-12-19T09:57:54;28.25;;;7.85;;
66085;SDS011;52868;49.758;9.586;2022-12-19T10:00:27;39.10;;;8.60;;
66085;SDS011;52868;49.758;9.586;2022-12-19T10:03:02;32.22;;;8.57;;
66085;SDS011;52868;49.758;9.586;2022-12-19T10:05:44;25.30;;;7.00;;
66085;SDS011;52868;49.758;9.586;2022-12-19T10:08:37;29.83;;;8.98;;
66085;SDS011;52868;49.758;9.586;2022-12-19T10:11:07;31.00;;;9.35;;
66085;SDS011;52868;49.758;9.586;2022-12-19T10:22:08;18.55;;;7.88;;
66085;SDS011;52868;49.758;9.586;2022-12-19T10:24:45;27.27;;;8.20;;
66085;SDS011;52868;49.758;9.586;2022-12-19T10:35:35;25.67;;;9.10;;
66085;SDS011;52868;49.758;9.586;2022-12-19T10:38:08;24.60;;;9.68;;
66085;SDS011;52868;49.758;9.586;2022-12-19T10:40:44;28.92;;;9.63;;
66085;SDS011;52868;49.758;9.586;2022-12-19T10:45:51;29.27;;;9.57;;
66085;SDS011;52868;49.758;9.586;2022-12-19T10:48:21;28.33;;;9.35;;
66085;SDS011;52868;49.758;9.586;2022-12-19T10:50:48;29.40;;;10.63;;
66085;SDS011;52868;49.758;9.586;2022-12-19T10:53:14;32.42;;;10.45;;
66085;SDS011;52868;49.758;9.586;2022-12-19T10:55:49;24.13;;;7.85;;
66085;SDS011;52868;49.758;9.586;2022-12-19T10:58:26;33.65;;;9.60;;
66085;SDS011;52868;49.758;9.586;2022-12-19T11:01:02;51.45;;;15.18;;
66085;SDS011;52868;49.758;9.586;2022-12-19T11:03:48;47.50;;;15.23;;
66085;SDS011;52868;49.758;9.586;2022-12-19T11:09:27;58.72;;;19.17;;
66085;SDS011;52868;49.758;9.586;2022-12-19T11:11:59;104.60;;;25.48;;
66085;SDS011;52868;49.758;9.586;2022-12-19T11:14:28;117.40;;;30.45;;
66085;SDS011;52868;49.758;9.586;2022-12-19T11:16:55;75.95;;;22.13;;
66085;SDS011;52868;49.758;9.586;2022-12-19T11:19:42;63.33;;;18.20;;
66085;SDS011;52868;49.758;9.586;2022-12-19T11:22:13;86.40;;;22.80;;
66085;SDS011;52868;49.758;9.586;2022-12-19T11:24:43;126.03;;;32.15;;
66085;SDS011;52868;49.758;9.586;2022-12-19T11:30:15;50.83;;;14.70;;
66085;SDS011;52868;49.758;9.586;2022-12-19T11:32:45;56.65;;;13.50;;
66085;SDS011;52868;49.758;9.586;2022-12-19T11:35:22;43.05;;;13.63;;
66085;SDS011;52868;49.758;9.586;2022-12-19T11:40:42;48.92;;;13.32;;
66085;SDS011;52868;49.758;9.586;2022-12-19T11:48:51;41.90;;;10.60;;
66085;SDS011;52868;49.758;9.586;2022-12-19T11:51:34;37.53;;;13.40;;
66085;SDS011;52868;49.758;9.586;2022-12-19T11:54:21;46.15;;;16.23;;
66085;SDS011;52868;49.758;9.586;2022-12-19T11:57:03;35.80;;;12.30;;
66085;SDS011;52868;49.758;9.586;2022-12-19T11:59:35;41.85;;;14.10;;
66085;SDS011;52868;49.758;9.586;2022-12-19T12:07:40;37.38;;;10.93;;
66085;SDS011;52868;49.758;9.586;2022-12-19T12:12:46;27.45;;;8.68;;
66085;SDS011;52868;49.758;9.586;2022-12-19T12:15:26;34.85;;;10.98;;
66085;SDS011;52868;49.758;9.586;2022-12-19T12:21:06;31.67;;;11.75;;
66085;SDS011;52868;49.758;9.586;2022-12-19T12:29:13;28.90;;;8.75;;
66085;SDS011;52868;49.758;9.586;2022-12-19T12:34:38;29.20;;;10.85;;
66085;SDS011;52868;49.758;9.586;2022-12-19T12:50:58;24.88;;;8.40;;
66085;SDS011;52868;49.758;9.586;2022-12-19T12:53:26;28.10;;;9.38;;
66085;SDS011;52868;49.758;9.586;2022-12-19T12:55:58;35.25;;;8.80;;
66085;SDS011;52868;49.758;9.586;2022-12-19T13:01:46;34.80;;;9.30;;
66085;SDS011;52868;49.758;9.586;2022-12-19T13:06:37;26.08;;;9.10;;
66085;SDS011;52868;49.758;9.586;2022-12-19T13:09:27;33.28;;;8.98;;
66085;SDS011;52868;49.758;9.586;2022-12-19T13:12:01;30.92;;;9.05;;
66085;SDS011;52868;49.758;9.586;2022-12-19T13:22:44;31.40;;;10.73;;
66085;SDS011;52868;49.758;9.586;2022-12-19T13:39:33;38.22;;;13.20;;
66085;SDS011;52868;49.758;9.586;2022-12-19T13:44:56;35.15;;;9.75;;
66085;SDS011;52868;49.758;9.586;2022-12-19T13:47:28;35.58;;;11.48;;
66085;SDS011;52868;49.758;9.586;2022-12-19T13:50:02;28.67;;;9.40;;
66085;SDS011;52868;49.758;9.586;2022-12-19T13:52:46;33.83;;;10.95;;
66085;SDS011;52868;49.758;9.586;2022-12-19T13:55:15;29.27;;;9.57;;
66085;SDS011;52868;49.758;9.586;2022-12-19T13:57:41;25.80;;;10.02;;
66085;SDS011;52868;49.758;9.586;2022-12-19T14:00:08;25.38;;;8.82;;
66085;SDS011;52868;49.758;9.586;2022-12-19T14:02:42;28.05;;;8.90;;
66085;SDS011;52868;49.758;9.586;2022-12-19T14:05:18;29.73;;;8.93;;
66085;SDS011;52868;49.758;9.586;2022-12-19T14:08:00;30.98;;;9.18;;
66085;SDS011;52868;49.758;9.586;2022-12-19T14:10:28;34.85;;;10.75;;
66085;SDS011;52868;49.758;9.586;2022-12-19T14:12:57;31.50;;;10.35;;
66085;SDS011;52868;49.758;9.586;2022-12-19T14:15:46;33.15;;;10.02;;
66085;SDS011;52868;49.758;9.586;2022-12-19T14:18:23;26.52;;;8.48;;
66085;SDS011;52868;49.758;9.586;2022-12-19T14:20:51;30.42;;;10.13;;
66085;SDS011;52868;49.758;9.586;2022-12-19T14:23:36;31.88;;;9.98;;
66085;SDS011;52868;49.758;9.586;2022-12-19T14:26:02;28.15;;;9.55;;
66085;SDS011;52868;49.758;9.586;2022-12-19T14:28:49;32.75;;;10.82;;
66085;SDS011;52868;49.758;9.586;2022-12-19T14:31:23;41.90;;;9.68;;
66085;SDS011;52868;49.758;9.586;2022-12-19T14:33:51;33.35;;;8.25;;
66085;SDS011;52868;49.758;9.586;2022-12-19T14:36:24;28.00;;;9.63;;
66085;SDS011;52868;49.758;9.586;2022-12-19T14:38:52;26.38;;;9.07;;
66085;SDS011;52868;49.758;9.586;2022-12-19T14:44:12;23.98;;;8.55;;
66085;SDS011;52868;49.758;9.586;2022-12-19T14:46:39;24.85;;;8.07;;
66085;SDS011;52868;49.758;9.586;2022-12-19T14:52:04;32.78;;;9.15;;
66085;SDS011;52868;49.758;9.586;2022-12-19T14:57:50;24.98;;;8.80;;
66085;SDS011;52868;49.758;9.586;2022-12-19T15:00:26;30.55;;;8.20;;
66085;SDS011;52868;49.758;9.586;2022-12-19T15:02:55;30.08;;;10.23;;
66085;SDS011;52868;49.758;9.586;2022-12-19T15:05:24;30.77;;;10.23;;
66085;SDS011;52868;49.758;9.586;2022-12-19T15:07:51;24.95;;;8.95;;
66085;SDS011;52868;49.758;9.586;2022-12-19T15:10:23;28.05;;;9.13;;
66085;SDS011;52868;49.758;9.586;2022-12-19T15:15:40;33.05;;;9.35;;
66085;SDS011;52868;49.758;9.586;2022-12-19T15:18:20;41.15;;;10.63;;
66085;SDS011;52868;49.758;9.586;2022-12-19T15:20:46;27.33;;;9.38;;
66085;SDS011;52868;49.758;9.586;2022-12-19T15:23:12;36.03;;;10.75;;
66085;SDS011;52868;49.758;9.586;2022-12-19T15:25:37;41.28;;;12.40;;
66085;SDS011;52868;49.758;9.586;2022-12-19T15:28:13;38.90;;;10.98;;
66085;SDS011;52868;49.758;9.586;2022-12-19T15:30:41;34.30;;;9.98;;
66085;SDS011;52868;49.758;9.586;2022-12-19T15:33:14;41.25;;;11.68;;
66085;SDS011;52868;49.758;9.586;2022-12-19T15:35:40;36.08;;;10.98;;
66085;SDS011;52868;49.758;9.586;2022-12-19T15:38:07;29.48;;;11.18;;
66085;SDS011;52868;49.758;9.586;2022-12-19T15:40:33;31.75;;;10.13;;
66085;SDS011;52868;49.758;9.586;2022-12-19T15:42:59;25.45;;;9.13;;
66085;SDS011;52868;49.758;9.586;2022-12-19T15:45:25;33.10;;;11.82;;
66085;SDS011;52868;49.758;9.586;2022-12-19T15:47:50;29.35;;;10.07;;
66085;SDS011;52868;49.758;9.586;2022-12-19T15:52:42;33.40;;;10.90;;
66085;SDS011;52868;49.758;9.586;2022-12-19T15:55:15;31.45;;;11.55;;
66085;SDS011;52868;49.758;9.586;2022-12-19T15:57:43;36.42;;;11.23;;
66085;SDS011;52868;49.758;9.586;2022-12-19T16:00:16;32.50;;;10.40;;
66085;SDS011;52868;49.758;9.586;2022-12-19T16:02:47;29.23;;;11.45;;
66085;SDS011;52868;49.758;9.586;2022-12-19T16:05:14;29.30;;;10.05;;
66085;SDS011;52868;49.758;9.586;2022-12-19T16:07:41;33.13;;;10.07;;
66085;SDS011;52868;49.758;9.586;2022-12-19T16:10:07;38.40;;;11.43;;
66085;SDS011;52868;49.758;9.586;2022-12-19T16:12:38;30.02;;;10.60;;
66085;SDS011;52868;49.758;9.586;2022-12-19T16:17:51;29.92;;;9.02;;
66085;SDS011;52868;49.758;9.586;2022-12-19T16:20:18;24.35;;;8.13;;
66085;SDS011;52868;49.758;9.586;2022-12-19T16:22:47;34.67;;;10.90;;
66085;SDS011;52868;49.758;9.586;2022-12-19T16:25:13;34.22;;;12.40;;
66085;SDS011;52868;49.758;9.586;2022-12-19T16:27:39;37.05;;;11.38;;
66085;SDS011;52868;49.758;9.586;2022-12-19T16:30:29;31.60;;;10.70;;
66085;SDS011;52868;49.758;9.586;2022-12-19T16:32:54;30.52;;;10.10;;
66085;SDS011;52868;49.758;9.586;2022-12-19T16:35:21;29.55;;;9.82;;
66085;SDS011;52868;49.758;9.586;2022-12-19T16:37:47;29.05;;;9.27;;
66085;SDS011;52868;49.758;9.586;2022-12-19T16:40:14;29.13;;;10.52;;
66085;SDS011;52868;49.758;9.586;2022-12-19T16:42:44;31.70;;;10.38;;
66085;SDS011;52868;49.758;9.586;2022-12-19T16:45:18;34.65;;;9.70;;
66085;SDS011;52868;49.758;9.586;2022-12-19T16:47:46;34.00;;;11.25;;
66085;SDS011;52868;49.758;9.586;2022-12-19T16:52:52;35.50;;;10.52;;
66085;SDS011;52868;49.758;9.586;2022-12-19T16:55:18;30.33;;;10.20;;
66085;SDS011;52868;49.758;9.586;2022-12-19T16:57:45;27.13;;;9.48;;
66085;SDS011;52868;49.758;9.586;2022-12-19T17:00:15;34.58;;;11.52;;
66085;SDS011;52868;49.758;9.586;2022-12-19T17:02:47;31.13;;;10.52;;
66085;SDS011;52868;49.758;9.586;2022-12-19T17:05:23;30.98;;;9.70;;
66085;SDS011;52868;49.758;9.586;2022-12-19T17:07:51;41.78;;;10.15;;
66085;SDS011;52868;49.758;9.586;2022-12-19T17:10:18;34.38;;;11.98;;
66085;SDS011;52868;49.758;9.586;2022-12-19T17:12:45;31.48;;;10.98;;
66085;SDS011;52868;49.758;9.586;2022-12-19T17:17:46;37.30;;;11.57;;
66085;SDS011;52868;49.758;9.586;2022-12-19T17:20:19;33.65;;;11.63;;